Terminal Aerodrome Forecast
Issued by NWS

Home | Current Version | Previous Version | Text Only | Print | Product List | Glossary On
Versions: 1 2 3 4 5 6 7 8 9 10 11 12 13 14 15 16 17 18
000
FTUS45 KMSO 282328
TAFSMN
TAF
KSMN 282328Z 2900/2924 35010KT P6SM VCSH SCT120
     FM290600 VRB05KT P6SM -SHRA BKN060
     FM290800 VRB05KT P6SM SCT060 SCT100
      AMD LTD TO CLD VIS AND WIND=

USA.gov is the U.S. government's official web portal to all federal, state and local government web resources and services.